sensor_id;sensor_type;location;lat;lon;timestamp;P1;durP1;ratioP1;P2;durP2;ratioP2
60430;SDS011;46285;45.122;20.726;2023-06-22T00:01:32;18.85;;;13.30;;
60430;SDS011;46285;45.122;20.726;2023-06-22T00:11:33;16.73;;;12.07;;
60430;SDS011;46285;45.122;20.726;2023-06-22T00:21:35;15.27;;;11.77;;
60430;SDS011;46285;45.122;20.726;2023-06-22T00:31:36;17.30;;;11.80;;
60430;SDS011;46285;45.122;20.726;2023-06-22T00:41:37;16.75;;;11.07;;
60430;SDS011;46285;45.122;20.726;2023-06-22T00:51:38;18.20;;;11.43;;
60430;SDS011;46285;45.122;20.726;2023-06-22T01:01:40;14.98;;;10.43;;
60430;SDS011;46285;45.122;20.726;2023-06-22T01:11:45;17.65;;;12.30;;
60430;SDS011;46285;45.122;20.726;2023-06-22T01:21:48;15.13;;;11.27;;
60430;SDS011;46285;45.122;20.726;2023-06-22T01:31:50;14.63;;;10.75;;
60430;SDS011;46285;45.122;20.726;2023-06-22T01:41:52;21.88;;;14.23;;
60430;SDS011;46285;45.122;20.726;2023-06-22T01:51:54;16.73;;;11.52;;
60430;SDS011;46285;45.122;20.726;2023-06-22T02:02:04;17.50;;;12.70;;
60430;SDS011;46285;45.122;20.726;2023-06-22T02:12:08;16.70;;;12.38;;
60430;SDS011;46285;45.122;20.726;2023-06-22T02:22:10;16.10;;;13.10;;
60430;SDS011;46285;45.122;20.726;2023-06-22T02:32:12;16.40;;;12.00;;
60430;SDS011;46285;45.122;20.726;2023-06-22T02:42:13;20.80;;;13.57;;
60430;SDS011;46285;45.122;20.726;2023-06-22T02:52:16;14.93;;;11.93;;
60430;SDS011;46285;45.122;20.726;2023-06-22T03:02:17;14.63;;;12.65;;
60430;SDS011;46285;45.122;20.726;2023-06-22T03:12:19;21.92;;;15.00;;
60430;SDS011;46285;45.122;20.726;2023-06-22T03:22:25;24.98;;;13.48;;
60430;SDS011;46285;45.122;20.726;2023-06-22T03:32:27;19.88;;;14.38;;
60430;SDS011;46285;45.122;20.726;2023-06-22T03:42:28;17.45;;;13.73;;
60430;SDS011;46285;45.122;20.726;2023-06-22T03:52:29;18.25;;;14.50;;
60430;SDS011;46285;45.122;20.726;2023-06-22T04:02:30;19.15;;;13.50;;
60430;SDS011;46285;45.122;20.726;2023-06-22T04:12:32;17.50;;;13.23;;
60430;SDS011;46285;45.122;20.726;2023-06-22T04:22:33;17.58;;;12.05;;
60430;SDS011;46285;45.122;20.726;2023-06-22T04:32:34;17.25;;;13.02;;
60430;SDS011;46285;45.122;20.726;2023-06-22T04:42:37;16.45;;;13.50;;
60430;SDS011;46285;45.122;20.726;2023-06-22T04:52:38;15.93;;;13.57;;
60430;SDS011;46285;45.122;20.726;2023-06-22T05:02:40;14.93;;;12.57;;
60430;SDS011;46285;45.122;20.726;2023-06-22T05:12:41;17.08;;;12.40;;
60430;SDS011;46285;45.122;20.726;2023-06-22T05:22:42;13.25;;;11.80;;
60430;SDS011;46285;45.122;20.726;2023-06-22T05:32:43;14.13;;;10.52;;
60430;SDS011;46285;45.122;20.726;2023-06-22T05:42:45;16.88;;;11.35;;
60430;SDS011;46285;45.122;20.726;2023-06-22T05:52:46;23.90;;;12.27;;
60430;SDS011;46285;45.122;20.726;2023-06-22T06:02:47;14.67;;;11.70;;
60430;SDS011;46285;45.122;20.726;2023-06-22T06:12:49;11.40;;;10.20;;
60430;SDS011;46285;45.122;20.726;2023-06-22T06:22:50;13.40;;;11.37;;
60430;SDS011;46285;45.122;20.726;2023-06-22T06:32:51;15.90;;;12.15;;
60430;SDS011;46285;45.122;20.726;2023-06-22T06:42:52;15.88;;;10.93;;
60430;SDS011;46285;45.122;20.726;2023-06-22T07:02:55;13.55;;;9.75;;
60430;SDS011;46285;45.122;20.726;2023-06-22T07:12:56;18.35;;;8.77;;
60430;SDS011;46285;45.122;20.726;2023-06-22T07:22:57;29.67;;;14.23;;
60430;SDS011;46285;45.122;20.726;2023-06-22T07:32:58;14.88;;;8.57;;
60430;SDS011;46285;45.122;20.726;2023-06-22T07:43:00;11.23;;;9.02;;
60430;SDS011;46285;45.122;20.726;2023-06-22T07:53:01;10.07;;;8.48;;
60430;SDS011;46285;45.122;20.726;2023-06-22T08:03:02;13.10;;;8.82;;
60430;SDS011;46285;45.122;20.726;2023-06-22T08:13:03;10.60;;;8.77;;
60430;SDS011;46285;45.122;20.726;2023-06-22T08:23:05;11.52;;;9.00;;
60430;SDS011;46285;45.122;20.726;2023-06-22T08:33:09;9.48;;;8.25;;
60430;SDS011;46285;45.122;20.726;2023-06-22T08:43:12;11.32;;;7.93;;
60430;SDS011;46285;45.122;20.726;2023-06-22T08:53:13;11.93;;;8.10;;
60430;SDS011;46285;45.122;20.726;2023-06-22T09:03:14;12.80;;;6.75;;
60430;SDS011;46285;45.122;20.726;2023-06-22T09:13:16;11.38;;;6.50;;
60430;SDS011;46285;45.122;20.726;2023-06-22T09:23:18;10.35;;;7.07;;
60430;SDS011;46285;45.122;20.726;2023-06-22T09:33:19;9.82;;;5.97;;
60430;SDS011;46285;45.122;20.726;2023-06-22T09:43:20;8.25;;;6.63;;
60430;SDS011;46285;45.122;20.726;2023-06-22T09:53:21;17.65;;;7.50;;
60430;SDS011;46285;45.122;20.726;2023-06-22T10:03:23;14.05;;;8.73;;
60430;SDS011;46285;45.122;20.726;2023-06-22T10:13:24;12.83;;;7.93;;
60430;SDS011;46285;45.122;20.726;2023-06-22T10:23:25;21.10;;;9.13;;
60430;SDS011;46285;45.122;20.726;2023-06-22T10:33:26;10.33;;;7.40;;
60430;SDS011;46285;45.122;20.726;2023-06-22T10:43:27;25.03;;;7.40;;
60430;SDS011;46285;45.122;20.726;2023-06-22T10:53:28;15.53;;;8.37;;
60430;SDS011;46285;45.122;20.726;2023-06-22T11:03:30;11.63;;;8.23;;
60430;SDS011;46285;45.122;20.726;2023-06-22T11:13:31;11.87;;;7.80;;
60430;SDS011;46285;45.122;20.726;2023-06-22T11:23:32;14.43;;;8.47;;
60430;SDS011;46285;45.122;20.726;2023-06-22T11:33:33;10.63;;;7.10;;
60430;SDS011;46285;45.122;20.726;2023-06-22T11:43:34;11.43;;;8.55;;
60430;SDS011;46285;45.122;20.726;2023-06-22T12:03:37;14.70;;;8.77;;
60430;SDS011;46285;45.122;20.726;2023-06-22T12:13:38;11.82;;;7.75;;
60430;SDS011;46285;45.122;20.726;2023-06-22T12:23:39;16.48;;;9.02;;
60430;SDS011;46285;45.122;20.726;2023-06-22T12:33:40;13.23;;;8.02;;
60430;SDS011;46285;45.122;20.726;2023-06-22T12:43:41;11.52;;;8.40;;
60430;SDS011;46285;45.122;20.726;2023-06-22T13:03:44;12.90;;;7.95;;
60430;SDS011;46285;45.122;20.726;2023-06-22T13:23:46;11.85;;;7.30;;
60430;SDS011;46285;45.122;20.726;2023-06-22T13:33:47;13.15;;;7.43;;
60430;SDS011;46285;45.122;20.726;2023-06-22T13:43:49;16.13;;;8.63;;
60430;SDS011;46285;45.122;20.726;2023-06-22T13:53:51;14.60;;;7.32;;
60430;SDS011;46285;45.122;20.726;2023-06-22T14:13:54;10.98;;;7.82;;
60430;SDS011;46285;45.122;20.726;2023-06-22T14:23:55;16.35;;;7.93;;
60430;SDS011;46285;45.122;20.726;2023-06-22T14:33:57;13.77;;;8.35;;
60430;SDS011;46285;45.122;20.726;2023-06-22T14:43:58;11.93;;;7.25;;
60430;SDS011;46285;45.122;20.726;2023-06-22T14:53:59;10.75;;;7.70;;
60430;SDS011;46285;45.122;20.726;2023-06-22T15:04:00;11.50;;;7.70;;
60430;SDS011;46285;45.122;20.726;2023-06-22T15:14:01;13.60;;;7.15;;
60430;SDS011;46285;45.122;20.726;2023-06-22T15:24:03;11.60;;;7.13;;
60430;SDS011;46285;45.122;20.726;2023-06-22T15:44:05;10.73;;;7.07;;
60430;SDS011;46285;45.122;20.726;2023-06-22T15:54:06;10.52;;;7.10;;
60430;SDS011;46285;45.122;20.726;2023-06-22T16:04:08;17.83;;;6.70;;
60430;SDS011;46285;45.122;20.726;2023-06-22T16:14:10;11.80;;;6.95;;
60430;SDS011;46285;45.122;20.726;2023-06-22T16:24:11;15.50;;;7.70;;
60430;SDS011;46285;45.122;20.726;2023-06-22T16:34:12;14.37;;;7.60;;
60430;SDS011;46285;45.122;20.726;2023-06-22T16:44:13;20.20;;;8.37;;
60430;SDS011;46285;45.122;20.726;2023-06-22T16:54:17;11.00;;;8.10;;
60430;SDS011;46285;45.122;20.726;2023-06-22T17:04:19;12.35;;;7.60;;
60430;SDS011;46285;45.122;20.726;2023-06-22T17:14:22;17.13;;;8.20;;
60430;SDS011;46285;45.122;20.726;2023-06-22T17:24:24;21.73;;;8.35;;
60430;SDS011;46285;45.122;20.726;2023-06-22T17:34:28;12.73;;;8.03;;
60430;SDS011;46285;45.122;20.726;2023-06-22T17:44:33;17.10;;;7.88;;
60430;SDS011;46285;45.122;20.726;2023-06-22T17:54:34;21.58;;;9.05;;
60430;SDS011;46285;45.122;20.726;2023-06-22T18:04:35;13.87;;;8.50;;
60430;SDS011;46285;45.122;20.726;2023-06-22T18:14:37;13.90;;;8.37;;
60430;SDS011;46285;45.122;20.726;2023-06-22T18:24:40;15.05;;;8.52;;
60430;SDS011;46285;45.122;20.726;2023-06-22T18:34:41;16.70;;;8.73;;
60430;SDS011;46285;45.122;20.726;2023-06-22T18:44:43;21.47;;;9.73;;
60430;SDS011;46285;45.122;20.726;2023-06-22T18:54:48;17.92;;;9.57;;
60430;SDS011;46285;45.122;20.726;2023-06-22T19:04:50;22.58;;;10.05;;
60430;SDS011;46285;45.122;20.726;2023-06-22T19:15:09;15.80;;;9.30;;
60430;SDS011;46285;45.122;20.726;2023-06-22T19:25:18;32.63;;;11.35;;
60430;SDS011;46285;45.122;20.726;2023-06-22T19:35:21;20.25;;;9.93;;
60430;SDS011;46285;45.122;20.726;2023-06-22T19:45:22;23.25;;;10.45;;
60430;SDS011;46285;45.122;20.726;2023-06-22T19:55:23;18.30;;;9.38;;
60430;SDS011;46285;45.122;20.726;2023-06-22T20:05:25;14.13;;;8.43;;
60430;SDS011;46285;45.122;20.726;2023-06-22T20:15:26;20.48;;;9.18;;
60430;SDS011;46285;45.122;20.726;2023-06-22T20:25:33;12.00;;;9.63;;
60430;SDS011;46285;45.122;20.726;2023-06-22T20:35:35;16.65;;;9.38;;
60430;SDS011;46285;45.122;20.726;2023-06-22T20:45:36;12.25;;;8.55;;
60430;SDS011;46285;45.122;20.726;2023-06-22T20:55:37;13.45;;;7.93;;
60430;SDS011;46285;45.122;20.726;2023-06-22T21:05:38;11.98;;;9.00;;
60430;SDS011;46285;45.122;20.726;2023-06-22T21:15:40;14.93;;;10.30;;
60430;SDS011;46285;45.122;20.726;2023-06-22T21:25:42;14.43;;;9.90;;
60430;SDS011;46285;45.122;20.726;2023-06-22T21:35:44;14.27;;;10.77;;
60430;SDS011;46285;45.122;20.726;2023-06-22T21:45:45;14.35;;;10.90;;
60430;SDS011;46285;45.122;20.726;2023-06-22T21:55:46;15.75;;;10.85;;
60430;SDS011;46285;45.122;20.726;2023-06-22T22:05:47;15.82;;;11.35;;
60430;SDS011;46285;45.122;20.726;2023-06-22T22:15:48;14.35;;;11.02;;
60430;SDS011;46285;45.122;20.726;2023-06-22T22:25:52;14.82;;;12.18;;
60430;SDS011;46285;45.122;20.726;2023-06-22T22:35:54;16.48;;;11.20;;
60430;SDS011;46285;45.122;20.726;2023-06-22T22:45:55;15.00;;;10.95;;
60430;SDS011;46285;45.122;20.726;2023-06-22T22:55:56;14.23;;;11.35;;
60430;SDS011;46285;45.122;20.726;2023-06-22T23:05:58;15.07;;;10.73;;
60430;SDS011;46285;45.122;20.726;2023-06-22T23:15:59;13.15;;;11.35;;
60430;SDS011;46285;45.122;20.726;2023-06-22T23:26:01;14.90;;;11.02;;
60430;SDS011;46285;45.122;20.726;2023-06-22T23:36:02;15.93;;;11.63;;
60430;SDS011;46285;45.122;20.726;2023-06-22T23:46:04;16.70;;;11.80;;
60430;SDS011;46285;45.122;20.726;2023-06-22T23:56:08;20.63;;;12.35;;
